Wednesday, May 04, 2016
15:29 UTC
  |  Log In   |  Register Free
Airport Search:

Comanche County-City Airport
(KMKN)

Comanche County-City Airport Diagram
No Airport Diagram Available

FAA data valid effective Mar 31 2016 - May 26 2016 (unless otherwise noted).

 
 
 
 
 
 
 
 
 
 
 
 
 
 
Current Aviation Weather for KMKN

Weather Summary


The most recent METAR observation for MKN was updated at: 12:55 UTC
METAR for KMKN is not available. Closest METAR is for KBWD
KMKN  (most recent observation was updatred at 41:51 UTC)
041515Z AUTO 31008KT 10SM CLR 21/13 A3014 RMK AO2 T02060134

KBWD  (19.7 nm NE)   (most recent observation was updated at 41:51 UTC)
041515Z AUTO 31005KT 10SM CLR 19/14 A3014 RMK AO2

KMNZ  (27.6 nm NW)   (most recent observation was updated at 41:51 UTC)
041515Z AUTO 29010KT 10SM CLR 22/13 A3013 RMK AO2 T02220129

TAF for KMKN is not available.
GlobalAir.com is loading additional information.
 Current Weather at MKN
65.0 F° (18.4 C°)

West winds at 8.1 mph
Pressure:
30.13 in
Humidity:
72%
Wind:
West at 8.1 mph
Dew Point:
55.9 F° (13.3 C°)
Visibility:
10.00 mi
MKN NOAA Radar




Find All Airport Services Find A Hotel Find A Rental Car Find A Golf Course Find A Restaurant $100 Hamburger



Airport Weather Forecast for KMKN

Translated METAR for KMKN (1515 UTC)
METAR:
KMKN 041515Z AUTO 31008KT 10SM CLR 21/13 A3014 RMK AO2 T02060134
Conditions at:
KMKN (Comanche County-City, TX) observed 1515 UTC 04 May 2016
Temperature:
21°C (69.8°F)
Dewpoint:
13°C (55.4°F) [RH = 60.2]
Pressure:
30.14 inches Hg (1020.7 mb)
Winds:
from the NW (310 degrees) at 9.2 mph (8 knots: 4.1 m/s)
Visibility:
10 mile(s)
Ceiling:
at least 12,000 feet AGL
Clouds:
Clear below 12,000 feet AGL
Remarks:
site is un-manned
site is automated and HAS a precipitation sensor

Translated TAF for TAF for MKN is not available. Refer to local area forecast.
FBO's on the Field
FBO Company Facility Photos Services Transportation Aviation Fuel Prices: Prices include tax
Catering Weather Repair Courtesy Rental Type 100LL JetA JetA+ MOGAS 8087
 
Comanche County/City Airport

This FBO has not yet been rated
FS:Avfuel
Last Updated: Apr-28
Login to update fuel prices
SS:
Contact Comanche County/City AirportMore FBO Information
 
Add another FBO Facility Photos Catering Weather Repair Courtesy Rental Type 100LL JetA JetA+ MOGAS 8087
Services Transportation Aviation Fuel Prices: Prices include tax


model-print
model-print
model-print
model-print